CES6681 ZBAD-ZUCK
Flight info
| Callsign | CES6681 |
|---|---|
| Flight time | N/A |
| Altitude | 32100 |
| Route | PEGSO B215 GODON W43 SAVPA W276 AVDIG W666 VINEX |
| Aircraft | MD82/M-SDFGIRWY/C |
Departure
| Time | N/A |
|---|---|
| Airport | Beijing Daxing International Airport (ZBAD) |
Arrival
| Time | 2026-04-24 09:13 |
|---|---|
| Airport | Chongqing Jiangbei International Airport (ZUCK) |
| Time | Latitude | Longitude | Altitude | Speed | Heading |
|---|---|---|---|---|---|
| 2026-04-24 07:33 | 38.00694 | 112.93791 | 32041 ft | 421 kts | 245° |
| 2026-04-24 07:33 | 37.98176 | 112.87097 | 32031 ft | 420 kts | 245° |
| 2026-04-24 07:34 | 37.95632 | 112.80446 | 32031 ft | 419 kts | 245° |
| 2026-04-24 07:34 | 37.93092 | 112.73795 | 32035 ft | 420 kts | 245° |
| 2026-04-24 07:35 | 37.90568 | 112.67114 | 32036 ft | 421 kts | 245° |
| 2026-04-24 07:35 | 37.88040 | 112.60416 | 32035 ft | 422 kts | 245° |
| 2026-04-24 07:36 | 37.85371 | 112.53801 | 32031 ft | 423 kts | 242° |
| 2026-04-24 07:36 | 37.82552 | 112.47275 | 32032 ft | 422 kts | 242° |
| 2026-04-24 07:37 | 37.79754 | 112.40761 | 32031 ft | 421 kts | 243° |
| 2026-04-24 07:37 | 37.76996 | 112.34243 | 32025 ft | 420 kts | 243° |
| 2026-04-24 07:38 | 37.74426 | 112.27607 | 32019 ft | 420 kts | 245° |
| 2026-04-24 07:38 | 37.71935 | 112.20930 | 32019 ft | 420 kts | 245° |
| 2026-04-24 07:39 | 37.69416 | 112.14278 | 32020 ft | 420 kts | 245° |
| 2026-04-24 07:39 | 37.66870 | 112.07642 | 32021 ft | 420 kts | 245° |
| 2026-04-24 07:40 | 37.64314 | 112.01016 | 32020 ft | 420 kts | 245° |
| 2026-04-24 07:40 | 37.61765 | 111.94394 | 32024 ft | 419 kts | 245° |
| 2026-04-24 07:41 | 37.59216 | 111.87773 | 32024 ft | 419 kts | 245° |
| 2026-04-24 07:41 | 37.56659 | 111.81171 | 32028 ft | 419 kts | 245° |
| 2026-04-24 07:42 | 37.54102 | 111.74589 | 32030 ft | 417 kts | 245° |
| 2026-04-24 07:42 | 37.51545 | 111.68081 | 32034 ft | 417 kts | 245° |
| 2026-04-24 07:43 | 37.48531 | 111.61815 | 32035 ft | 420 kts | 237° |
| 2026-04-24 07:43 | 37.45173 | 111.55781 | 32036 ft | 421 kts | 236° |
| 2026-04-24 07:44 | 37.41828 | 111.49716 | 32040 ft | 422 kts | 237° |
| 2026-04-24 07:44 | 37.38528 | 111.43616 | 32040 ft | 421 kts | 237° |
| 2026-04-24 07:45 | 37.35255 | 111.37516 | 32043 ft | 421 kts | 237° |
| 2026-04-24 07:45 | 37.31983 | 111.31421 | 32046 ft | 421 kts | 237° |
| 2026-04-24 07:46 | 37.28703 | 111.25331 | 32043 ft | 421 kts | 237° |
| 2026-04-24 07:46 | 37.25406 | 111.19235 | 32043 ft | 423 kts | 237° |
| 2026-04-24 07:47 | 37.22079 | 111.13145 | 32043 ft | 423 kts | 236° |
| 2026-04-24 07:47 | 37.18747 | 111.07048 | 32036 ft | 424 kts | 236° |
| 2026-04-24 07:48 | 37.15412 | 111.00936 | 32039 ft | 424 kts | 236° |
| 2026-04-24 07:48 | 37.12079 | 110.94828 | 32031 ft | 425 kts | 236° |
| 2026-04-24 07:49 | 37.08742 | 110.88719 | 32023 ft | 425 kts | 236° |
| 2026-04-24 07:49 | 37.05424 | 110.82647 | 32013 ft | 425 kts | 236° |
| 2026-04-24 07:50 | 37.02085 | 110.76543 | 32007 ft | 425 kts | 236° |
| 2026-04-24 07:50 | 36.98741 | 110.70422 | 32001 ft | 425 kts | 237° |
| 2026-04-24 07:51 | 36.95438 | 110.64291 | 31996 ft | 425 kts | 237° |
| 2026-04-24 07:51 | 36.92153 | 110.58134 | 31985 ft | 425 kts | 237° |
| 2026-04-24 07:52 | 36.88868 | 110.51984 | 31985 ft | 425 kts | 237° |
| 2026-04-24 07:52 | 36.85579 | 110.45840 | 31974 ft | 426 kts | 237° |
| 2026-04-24 07:53 | 36.82285 | 110.39699 | 31971 ft | 426 kts | 237° |
| 2026-04-24 07:53 | 36.78987 | 110.33558 | 31963 ft | 426 kts | 237° |
| 2026-04-24 07:54 | 36.75689 | 110.27420 | 31953 ft | 426 kts | 237° |
| 2026-04-24 07:54 | 36.72369 | 110.21302 | 31956 ft | 426 kts | 237° |
| 2026-04-24 07:55 | 36.69066 | 110.15231 | 31950 ft | 426 kts | 237° |
| 2026-04-24 07:55 | 36.65751 | 110.09126 | 31958 ft | 426 kts | 237° |
| 2026-04-24 07:56 | 36.62434 | 110.03015 | 31960 ft | 426 kts | 237° |
| 2026-04-24 07:56 | 36.59125 | 109.96921 | 31964 ft | 424 kts | 238° |
| 2026-04-24 07:57 | 36.55827 | 109.90854 | 31968 ft | 422 kts | 238° |
| 2026-04-24 07:57 | 36.52533 | 109.84804 | 31964 ft | 423 kts | 238° |
| 2026-04-24 07:58 | 36.49210 | 109.78756 | 31972 ft | 424 kts | 237° |
| 2026-04-24 07:58 | 36.45882 | 109.72714 | 31974 ft | 424 kts | 238° |
| 2026-04-24 07:59 | 36.42560 | 109.66674 | 31980 ft | 423 kts | 238° |
| 2026-04-24 07:59 | 36.39243 | 109.60643 | 31984 ft | 422 kts | 238° |
| 2026-04-24 08:00 | 36.35935 | 109.54628 | 31984 ft | 422 kts | 238° |
| 2026-04-24 08:00 | 36.32623 | 109.48612 | 31986 ft | 423 kts | 238° |
| 2026-04-24 08:01 | 36.29300 | 109.42586 | 31992 ft | 424 kts | 238° |
| 2026-04-24 08:01 | 36.27374 | 109.39809 | 31996 ft | 428 kts | 221° |
| 2026-04-24 08:01 | 36.24863 | 109.37804 | 31995 ft | 433 kts | 210° |
| 2026-04-24 08:02 | 36.19408 | 109.34604 | 31989 ft | 435 kts | 207° |
| 2026-04-24 08:02 | 36.13903 | 109.31483 | 31990 ft | 435 kts | 208° |
| 2026-04-24 08:03 | 36.08426 | 109.28285 | 31988 ft | 435 kts | 209° |
| 2026-04-24 08:03 | 36.02980 | 109.25017 | 31997 ft | 435 kts | 209° |
| 2026-04-24 08:04 | 35.97535 | 109.21736 | 32003 ft | 435 kts | 209° |
| 2026-04-24 08:04 | 35.93000 | 109.19024 | 32002 ft | 435 kts | 209° |
| 2026-04-24 08:05 | 35.86654 | 109.15243 | 31995 ft | 435 kts | 210° |
| 2026-04-24 08:05 | 35.81084 | 109.12279 | 32001 ft | 438 kts | 204° |
| 2026-04-24 08:06 | 35.75334 | 109.09803 | 32005 ft | 438 kts | 203° |
| 2026-04-24 08:06 | 35.70544 | 109.07754 | 32007 ft | 438 kts | 203° |
| 2026-04-24 08:07 | 35.64806 | 109.05232 | 32016 ft | 438 kts | 204° |
| 2026-04-24 08:07 | 35.59073 | 109.02671 | 32008 ft | 439 kts | 204° |
| 2026-04-24 08:08 | 35.53325 | 109.00105 | 32015 ft | 441 kts | 204° |
| 2026-04-24 08:09 | 35.44692 | 108.96275 | 32020 ft | 438 kts | 204° |
| 2026-04-24 08:09 | 35.38960 | 108.93752 | 32017 ft | 437 kts | 204° |
| 2026-04-24 08:10 | 35.33225 | 108.91222 | 32025 ft | 439 kts | 204° |
| 2026-04-24 08:10 | 35.27473 | 108.88687 | 32023 ft | 440 kts | 205° |
| 2026-04-24 08:11 | 35.21710 | 108.86151 | 32027 ft | 440 kts | 205° |
| 2026-04-24 08:11 | 35.15965 | 108.83627 | 32028 ft | 438 kts | 204° |
| 2026-04-24 08:12 | 35.10230 | 108.81113 | 32023 ft | 438 kts | 205° |
| 2026-04-24 08:12 | 35.04473 | 108.78589 | 32024 ft | 440 kts | 205° |
| 2026-04-24 08:13 | 34.98703 | 108.76077 | 32025 ft | 441 kts | 204° |
| 2026-04-24 08:13 | 34.92924 | 108.73560 | 32023 ft | 441 kts | 204° |
| 2026-04-24 08:14 | 34.87139 | 108.71041 | 32019 ft | 441 kts | 205° |
| 2026-04-24 08:14 | 34.81366 | 108.68532 | 32020 ft | 440 kts | 205° |
| 2026-04-24 08:15 | 34.75604 | 108.66029 | 32020 ft | 440 kts | 205° |
| 2026-04-24 08:15 | 34.69827 | 108.63522 | 32019 ft | 442 kts | 205° |
| 2026-04-24 08:16 | 34.64085 | 108.61035 | 32023 ft | 441 kts | 205° |
| 2026-04-24 08:16 | 34.58312 | 108.58527 | 32025 ft | 441 kts | 205° |
| 2026-04-24 08:17 | 34.52521 | 108.56021 | 32022 ft | 442 kts | 205° |
| 2026-04-24 08:17 | 34.46714 | 108.53533 | 32023 ft | 443 kts | 205° |
| 2026-04-24 08:18 | 34.40894 | 108.51056 | 32020 ft | 443 kts | 205° |
| 2026-04-24 08:18 | 34.35081 | 108.48567 | 32024 ft | 443 kts | 205° |
| 2026-04-24 08:19 | 34.29264 | 108.46066 | 32019 ft | 444 kts | 205° |
| 2026-04-24 08:19 | 34.23445 | 108.43566 | 32020 ft | 444 kts | 205° |
| 2026-04-24 08:20 | 34.17619 | 108.41070 | 32023 ft | 444 kts | 205° |
| 2026-04-24 08:20 | 34.11800 | 108.38582 | 32035 ft | 443 kts | 205° |
| 2026-04-24 08:21 | 34.05995 | 108.36111 | 32044 ft | 442 kts | 205° |
| 2026-04-24 08:21 | 34.00194 | 108.33649 | 32056 ft | 442 kts | 205° |
| 2026-04-24 08:22 | 33.94399 | 108.31174 | 32052 ft | 441 kts | 205° |
| 2026-04-24 08:22 | 33.88596 | 108.28711 | 32063 ft | 444 kts | 205° |
| 2026-04-24 08:23 | 33.82741 | 108.26242 | 32086 ft | 446 kts | 205° |
| 2026-04-24 08:23 | 33.76896 | 108.23762 | 32092 ft | 445 kts | 205° |
| 2026-04-24 08:24 | 33.71105 | 108.21306 | 32096 ft | 444 kts | 205° |
| 2026-04-24 08:24 | 33.65264 | 108.18839 | 32097 ft | 445 kts | 205° |
| 2026-04-24 08:25 | 33.59397 | 108.16374 | 32094 ft | 448 kts | 205° |
| 2026-04-24 08:25 | 33.53498 | 108.13893 | 32095 ft | 450 kts | 205° |
| 2026-04-24 08:26 | 33.47590 | 108.11406 | 32088 ft | 450 kts | 205° |
| 2026-04-24 08:26 | 33.41688 | 108.08931 | 32079 ft | 450 kts | 205° |
| 2026-04-24 08:27 | 33.35704 | 108.06682 | 32075 ft | 452 kts | 202° |
| 2026-04-24 08:27 | 33.29665 | 108.04591 | 32058 ft | 452 kts | 202° |
| 2026-04-24 08:28 | 33.23638 | 108.02483 | 32048 ft | 451 kts | 202° |
| 2026-04-24 08:28 | 33.17625 | 108.00346 | 32050 ft | 452 kts | 202° |
| 2026-04-24 08:29 | 33.11591 | 107.98184 | 32040 ft | 453 kts | 202° |
| 2026-04-24 08:29 | 33.05551 | 107.96018 | 32043 ft | 453 kts | 202° |
| 2026-04-24 08:30 | 32.99507 | 107.93876 | 32047 ft | 454 kts | 202° |
| 2026-04-24 08:30 | 32.93478 | 107.91751 | 32043 ft | 455 kts | 203° |
| 2026-04-24 08:31 | 32.87428 | 107.89607 | 32041 ft | 453 kts | 203° |
| 2026-04-24 08:31 | 32.81381 | 107.87465 | 32040 ft | 453 kts | 203° |
| 2026-04-24 08:32 | 32.75339 | 107.85327 | 32048 ft | 453 kts | 203° |
| 2026-04-24 08:32 | 32.69297 | 107.83192 | 32064 ft | 454 kts | 203° |
| 2026-04-24 08:33 | 32.63238 | 107.81059 | 32048 ft | 453 kts | 203° |
| 2026-04-24 08:33 | 32.57220 | 107.78949 | 32062 ft | 450 kts | 203° |
| 2026-04-24 08:34 | 32.51174 | 107.76831 | 32050 ft | 455 kts | 204° |
| 2026-04-24 08:34 | 32.45120 | 107.74710 | 32053 ft | 453 kts | 204° |
| 2026-04-24 08:35 | 32.39056 | 107.72583 | 32054 ft | 456 kts | 204° |
| 2026-04-24 08:35 | 32.32945 | 107.70442 | 32052 ft | 459 kts | 204° |
| 2026-04-24 08:36 | 32.26816 | 107.68305 | 32051 ft | 459 kts | 204° |
| 2026-04-24 08:36 | 32.20698 | 107.66169 | 32048 ft | 457 kts | 206° |
| 2026-04-24 08:36 | 32.17859 | 107.64666 | 32045 ft | 439 kts | 221° |
| 2026-04-24 08:37 | 32.15367 | 107.62601 | 32057 ft | 437 kts | 226° |
| 2026-04-24 08:37 | 32.10577 | 107.58179 | 32003 ft | 436 kts | 227° |
| 2026-04-24 08:38 | 32.05804 | 107.53785 | 32019 ft | 437 kts | 226° |
| 2026-04-24 08:38 | 32.00936 | 107.49440 | 32018 ft | 440 kts | 225° |
| 2026-04-24 08:39 | 31.96058 | 107.45154 | 32046 ft | 442 kts | 225° |
| 2026-04-24 08:39 | 31.91128 | 107.40836 | 32049 ft | 441 kts | 226° |
| 2026-04-24 08:40 | 31.86212 | 107.36522 | 32042 ft | 440 kts | 226° |
| 2026-04-24 08:40 | 31.81325 | 107.32225 | 32045 ft | 438 kts | 226° |
| 2026-04-24 08:41 | 31.76107 | 107.28352 | 32050 ft | 455 kts | 213° |
| 2026-04-24 08:41 | 31.70233 | 107.25439 | 32044 ft | 460 kts | 211° |
| 2026-04-24 08:42 | 31.64341 | 107.22541 | 32037 ft | 458 kts | 212° |
| 2026-04-24 08:42 | 31.58506 | 107.19569 | 32040 ft | 457 kts | 212° |
| 2026-04-24 08:43 | 31.52680 | 107.16540 | 32041 ft | 458 kts | 213° |
| 2026-04-24 08:43 | 31.46851 | 107.13513 | 32038 ft | 458 kts | 212° |
| 2026-04-24 08:44 | 31.41003 | 107.10495 | 32044 ft | 459 kts | 212° |
| 2026-04-24 08:44 | 31.35201 | 107.07523 | 32044 ft | 457 kts | 212° |
| 2026-04-24 08:45 | 31.29381 | 107.04551 | 32048 ft | 456 kts | 212° |
| 2026-04-24 08:45 | 31.23562 | 107.01568 | 32039 ft | 457 kts | 213° |
| 2026-04-24 08:46 | 31.17742 | 106.98588 | 32041 ft | 457 kts | 212° |
| 2026-04-24 08:46 | 31.11901 | 106.95599 | 32045 ft | 460 kts | 212° |
| 2026-04-24 08:47 | 31.06056 | 106.92610 | 32044 ft | 457 kts | 212° |
| 2026-04-24 08:47 | 31.00243 | 106.89657 | 32047 ft | 456 kts | 212° |
| 2026-04-24 08:48 | 30.94424 | 106.86708 | 32051 ft | 456 kts | 212° |
| 2026-04-24 08:48 | 30.88619 | 106.83762 | 32047 ft | 455 kts | 212° |
| 2026-04-24 08:49 | 30.82821 | 106.80822 | 32065 ft | 454 kts | 211° |
| 2026-04-24 08:49 | 30.77034 | 106.77888 | 32063 ft | 453 kts | 211° |
| 2026-04-24 08:50 | 30.71250 | 106.74963 | 32060 ft | 453 kts | 211° |
| 2026-04-24 08:50 | 30.65405 | 106.72176 | 32065 ft | 462 kts | 201° |
| 2026-04-24 08:50 | 30.62167 | 106.71737 | 32070 ft | 478 kts | 182° |
| 2026-04-24 08:51 | 30.58852 | 106.72387 | 32072 ft | 491 kts | 165° |
| 2026-04-24 08:51 | 30.55738 | 106.74064 | 32073 ft | 498 kts | 148° |
| 2026-04-24 08:51 | 30.53058 | 106.76624 | 31976 ft | 504 kts | 134° |
| 2026-04-24 08:51 | 30.50672 | 106.79651 | 31443 ft | 510 kts | 132° |
| 2026-04-24 08:52 | 30.48293 | 106.82673 | 30897 ft | 505 kts | 134° |
| 2026-04-24 08:52 | 30.45844 | 106.85563 | 30374 ft | 500 kts | 136° |
| 2026-04-24 08:52 | 30.43337 | 106.88332 | 29821 ft | 496 kts | 138° |
| 2026-04-24 08:52 | 30.41659 | 106.90119 | 29417 ft | 493 kts | 139° |
| 2026-04-24 08:53 | 30.39125 | 106.92765 | 28780 ft | 488 kts | 139° |
| 2026-04-24 08:53 | 30.36606 | 106.95376 | 28190 ft | 483 kts | 139° |
| 2026-04-24 08:53 | 30.34114 | 106.97966 | 27612 ft | 479 kts | 139° |
| 2026-04-24 08:53 | 30.32708 | 106.99434 | 27294 ft | 477 kts | 139° |
| 2026-04-24 08:54 | 30.29474 | 107.02835 | 26553 ft | 472 kts | 139° |
| 2026-04-24 08:54 | 30.27059 | 107.05378 | 26020 ft | 468 kts | 139° |
| 2026-04-24 08:54 | 30.25433 | 107.07088 | 25656 ft | 465 kts | 139° |
| 2026-04-24 08:54 | 30.23033 | 107.09569 | 25125 ft | 461 kts | 144° |
| 2026-04-24 08:55 | 30.20321 | 107.11442 | 24618 ft | 450 kts | 162° |
| 2026-04-24 08:55 | 30.16362 | 107.12338 | 23956 ft | 430 kts | 188° |
| 2026-04-24 08:55 | 30.14381 | 107.12087 | 23624 ft | 419 kts | 200° |
| 2026-04-24 08:55 | 30.11710 | 107.11036 | 23052 ft | 404 kts | 212° |
| 2026-04-24 08:56 | 30.09256 | 107.09523 | 22455 ft | 396 kts | 218° |
| 2026-04-24 08:56 | 30.06959 | 107.07818 | 21875 ft | 390 kts | 221° |
| 2026-04-24 08:56 | 30.04752 | 107.06025 | 21310 ft | 386 kts | 223° |
| 2026-04-24 08:56 | 30.02597 | 107.04200 | 20755 ft | 383 kts | 223° |
| 2026-04-24 08:57 | 30.00470 | 107.02376 | 20252 ft | 379 kts | 223° |
| 2026-04-24 08:57 | 29.98361 | 107.00571 | 19772 ft | 375 kts | 223° |
| 2026-04-24 08:57 | 29.96262 | 106.98794 | 19297 ft | 372 kts | 222° |
| 2026-04-24 08:57 | 29.94181 | 106.97052 | 18830 ft | 368 kts | 221° |
| 2026-04-24 08:58 | 29.92114 | 106.95333 | 18370 ft | 365 kts | 221° |
| 2026-04-24 08:58 | 29.90056 | 106.93631 | 17851 ft | 362 kts | 221° |
| 2026-04-24 08:58 | 29.88020 | 106.91954 | 17332 ft | 359 kts | 220° |
| 2026-04-24 08:58 | 29.85993 | 106.90292 | 16814 ft | 355 kts | 220° |
| 2026-04-24 08:59 | 29.83992 | 106.88649 | 16313 ft | 352 kts | 220° |
| 2026-04-24 08:59 | 29.82007 | 106.87013 | 15815 ft | 349 kts | 220° |
| 2026-04-24 08:59 | 29.80044 | 106.85398 | 15336 ft | 346 kts | 220° |
| 2026-04-24 08:59 | 29.78093 | 106.83796 | 14840 ft | 343 kts | 219° |
| 2026-04-24 09:00 | 29.76158 | 106.82209 | 14374 ft | 340 kts | 219° |
| 2026-04-24 09:00 | 29.74238 | 106.80632 | 13909 ft | 338 kts | 219° |
| 2026-04-24 09:00 | 29.72329 | 106.79063 | 13412 ft | 336 kts | 219° |
| 2026-04-24 09:00 | 29.70299 | 106.77739 | 12899 ft | 338 kts | 203° |
| 2026-04-24 09:01 | 29.68071 | 106.76901 | 12401 ft | 337 kts | 198° |
| 2026-04-24 09:01 | 29.65822 | 106.76168 | 11905 ft | 335 kts | 197° |
| 2026-04-24 09:01 | 29.63597 | 106.75453 | 11412 ft | 333 kts | 197° |
| 2026-04-24 09:01 | 29.61374 | 106.74739 | 10940 ft | 331 kts | 196° |
| 2026-04-24 09:02 | 29.59176 | 106.74024 | 10582 ft | 325 kts | 197° |
| 2026-04-24 09:02 | 29.57028 | 106.73315 | 10295 ft | 317 kts | 197° |
| 2026-04-24 09:02 | 29.54933 | 106.72609 | 9992 ft | 310 kts | 197° |
| 2026-04-24 09:02 | 29.52882 | 106.71904 | 9662 ft | 305 kts | 196° |
| 2026-04-24 09:03 | 29.50872 | 106.71215 | 9331 ft | 299 kts | 197° |
| 2026-04-24 09:03 | 29.48899 | 106.70534 | 8995 ft | 294 kts | 197° |
| 2026-04-24 09:03 | 29.46963 | 106.69858 | 8662 ft | 285 kts | 196° |
| 2026-04-24 09:03 | 29.45109 | 106.69206 | 8332 ft | 274 kts | 196° |
| 2026-04-24 09:04 | 29.43308 | 106.68574 | 8025 ft | 268 kts | 196° |
| 2026-04-24 09:04 | 29.41560 | 106.67966 | 7705 ft | 257 kts | 196° |
| 2026-04-24 09:04 | 29.39859 | 106.67374 | 7400 ft | 254 kts | 196° |
| 2026-04-24 09:04 | 29.38190 | 106.66754 | 7089 ft | 252 kts | 204° |
| 2026-04-24 09:05 | 29.36854 | 106.65505 | 6800 ft | 250 kts | 237° |
| 2026-04-24 09:05 | 29.36318 | 106.63643 | 6503 ft | 248 kts | 269° |
| 2026-04-24 09:05 | 29.36589 | 106.61702 | 6203 ft | 247 kts | 284° |
| 2026-04-24 09:05 | 29.37064 | 106.59818 | 5881 ft | 246 kts | 287° |
| 2026-04-24 09:06 | 29.37612 | 106.57970 | 5556 ft | 245 kts | 297° |
| 2026-04-24 09:06 | 29.38712 | 106.56525 | 5252 ft | 243 kts | 331° |
| 2026-04-24 09:06 | 29.40289 | 106.56023 | 5097 ft | 234 kts | 3° |
| 2026-04-24 09:06 | 29.41875 | 106.56205 | 5008 ft | 226 kts | 11° |
| 2026-04-24 09:07 | 29.43386 | 106.56525 | 4952 ft | 221 kts | 13° |
| 2026-04-24 09:07 | 29.44882 | 106.56932 | 4958 ft | 221 kts | 17° |
| 2026-04-24 09:07 | 29.47806 | 106.57936 | 4971 ft | 218 kts | 18° |
| 2026-04-24 09:08 | 29.49261 | 106.58440 | 4934 ft | 219 kts | 18° |
| 2026-04-24 09:08 | 29.50725 | 106.58957 | 4915 ft | 220 kts | 18° |
| 2026-04-24 09:08 | 29.52181 | 106.59460 | 4900 ft | 215 kts | 18° |
| 2026-04-24 09:08 | 29.53566 | 106.59936 | 4885 ft | 202 kts | 18° |
| 2026-04-24 09:09 | 29.54899 | 106.60408 | 4761 ft | 202 kts | 18° |
| 2026-04-24 09:09 | 29.56242 | 106.60875 | 4488 ft | 201 kts | 17° |
| 2026-04-24 09:09 | 29.57574 | 106.61334 | 4129 ft | 199 kts | 18° |
| 2026-04-24 09:09 | 29.58876 | 106.61785 | 3802 ft | 193 kts | 18° |
| 2026-04-24 09:10 | 29.60143 | 106.62227 | 3605 ft | 185 kts | 17° |
| 2026-04-24 09:10 | 29.61327 | 106.62632 | 3426 ft | 174 kts | 18° |
| 2026-04-24 09:10 | 29.62481 | 106.63039 | 3199 ft | 173 kts | 18° |
| 2026-04-24 09:10 | 29.63620 | 106.63426 | 2948 ft | 167 kts | 16° |
| 2026-04-24 09:11 | 29.64709 | 106.63800 | 2763 ft | 160 kts | 18° |
| 2026-04-24 09:11 | 29.65761 | 106.64168 | 2529 ft | 156 kts | 18° |
| 2026-04-24 09:11 | 29.66788 | 106.64525 | 2299 ft | 153 kts | 18° |
| 2026-04-24 09:11 | 29.67798 | 106.64877 | 2093 ft | 151 kts | 17° |
| 2026-04-24 09:12 | 29.68803 | 106.65227 | 1893 ft | 151 kts | 17° |
| 2026-04-24 09:12 | 29.69807 | 106.65551 | 1749 ft | 149 kts | 16° |
| 2026-04-24 09:12 | 29.70797 | 106.65902 | 1552 ft | 150 kts | 19° |
| 2026-04-24 09:12 | 29.71796 | 106.66256 | 1348 ft | 149 kts | 16° |
| 2026-04-24 09:13 | 29.72724 | 106.66570 | 1331 ft | 124 kts | 20° |
| 2026-04-24 09:13 | 29.73336 | 106.66797 | 1323 ft | 54 kts | 17° |
| 2026-04-24 09:13 | 29.73587 | 106.66859 | 1319 ft | 24 kts | 352° |
| 2026-04-24 09:13 | 29.73689 | 106.66841 | 1319 ft | 14 kts | 351° |
| 2026-04-24 09:14 | 29.73767 | 106.66794 | 1320 ft | 9 kts | 297° |
| 2026-04-24 09:14 | 29.73782 | 106.66737 | 1321 ft | 7 kts | 282° |
| 2026-04-24 09:14 | 29.73791 | 106.66684 | 1322 ft | 6 kts | 277° |
| 2026-04-24 09:14 | 29.73784 | 106.66655 | 1322 ft | 0 kts | 229° |
| 2026-04-24 09:15 | 29.73782 | 106.66653 | 1322 ft | 0 kts | 226° |
| 2026-04-24 09:15 | 29.73782 | 106.66652 | 1322 ft | 0 kts | 222° |
| 2026-04-24 09:15 | 29.73773 | 106.66647 | 1322 ft | 3 kts | 208° |
| 2026-04-24 09:15 | 29.73743 | 106.66633 | 1323 ft | 6 kts | 200° |
| 2026-04-24 09:16 | 29.73690 | 106.66611 | 1323 ft | 10 kts | 200° |
| 2026-04-24 09:16 | 29.73626 | 106.66574 | 1324 ft | 11 kts | 231° |
| 2026-04-24 09:16 | 29.73630 | 106.66487 | 1326 ft | 12 kts | 286° |
| 2026-04-24 09:16 | 29.73655 | 106.66389 | 1328 ft | 13 kts | 286° |
| 2026-04-24 09:17 | 29.73671 | 106.66286 | 1330 ft | 13 kts | 268° |
| 2026-04-24 09:17 | 29.73620 | 106.66212 | 1333 ft | 13 kts | 198° |
| 2026-04-24 09:17 | 29.73540 | 106.66153 | 1334 ft | 14 kts | 237° |
| 2026-04-24 09:17 | 29.73500 | 106.66062 | 1337 ft | 9 kts | 244° |
| 2026-04-24 09:18 | 29.73461 | 106.66007 | 1344 ft | 8 kts | 199° |
| 2026-04-24 09:18 | 29.73394 | 106.66013 | 1338 ft | 12 kts | 174° |
| 2026-04-24 09:18 | 29.73386 | 106.66014 | 1338 ft | 0 kts | 174° |